Time;durP1;ratioP1;P1;durP2;ratioP2;P2;SDS_P1;SDS_P2;PMS_P1;PMS_P2;Temp;Humidity;BMP_temperature;BMP_pressure;BME280_temperature;BME280_humidity;BME280_pressure;Samples;Min_cycle;Max_cycle;Signal;HPM_P1;HPM_P2
2024/01/20 00:01:13;;;;;;;12.60;7.33;;;-2.70;99.90;;;;;;5110395;28;20222;-55
2024/01/20 00:03:39;;;;;;;11.43;6.90;;;-2.80;99.90;;;;;;5110703;28;20302;-54
2024/01/20 00:06:05;;;;;;;18.20;7.47;;;-2.80;99.90;;;;;;5110435;28;20671;-55
2024/01/20 00:08:31;;;;;;;14.20;7.67;;;-2.70;99.90;;;;;;5110360;28;20617;-53
2024/01/20 00:10:56;;;;;;;12.53;8.00;;;-2.80;99.90;;;;;;5109388;28;20179;-52
2024/01/20 00:13:22;;;;;;;15.53;7.70;;;-2.80;99.90;;;;;;5110089;28;20626;-52
2024/01/20 00:15:48;;;;;;;15.60;8.30;;;-2.80;99.90;;;;;;5108893;28;20687;-52
2024/01/20 00:18:13;;;;;;;14.20;8.13;;;-2.90;99.90;;;;;;5109325;28;20175;-52
2024/01/20 00:20:39;;;;;;;13.67;7.87;;;-2.90;99.90;;;;;;5109797;28;20232;-52
2024/01/20 00:23:04;;;;;;;14.30;7.87;;;-2.80;99.90;;;;;;5109972;28;20191;-53
2024/01/20 00:25:30;;;;;;;12.83;7.73;;;-2.90;99.90;;;;;;5109823;28;20179;-52
2024/01/20 00:27:55;;;;;;;13.37;7.47;;;-2.80;99.90;;;;;;5110340;28;20182;-52
2024/01/20 00:30:21;;;;;;;13.73;7.70;;;-2.90;99.90;;;;;;5110125;28;20180;-52
2024/01/20 00:32:46;;;;;;;13.50;7.63;;;-2.90;99.90;;;;;;5109891;28;20222;-54
2024/01/20 00:35:12;;;;;;;14.23;7.53;;;-2.90;99.90;;;;;;5108993;28;20646;-54
2024/01/20 00:37:38;;;;;;;12.10;7.53;;;-2.90;99.90;;;;;;5109819;28;20217;-53
2024/01/20 00:40:05;;;;;;;15.20;8.43;;;-3.00;99.90;;;;;;5109942;28;20199;-53
2024/01/20 00:42:30;;;;;;;13.77;7.67;;;-3.00;99.90;;;;;;5109885;28;20171;-52
2024/01/20 00:44:56;;;;;;;15.10;6.90;;;-3.40;99.90;;;;;;5110088;28;20171;-53
2024/01/20 00:47:21;;;;;;;13.53;7.60;;;-3.50;99.90;;;;;;5109674;28;20168;-53
2024/01/20 00:49:47;;;;;;;18.07;8.30;;;-3.80;99.90;;;;;;5109614;28;20194;-54
2024/01/20 00:52:14;;;;;;;18.63;8.83;;;-3.70;99.90;;;;;;5109946;28;20243;-54
2024/01/20 00:54:39;;;;;;;16.30;8.57;;;-3.60;99.90;;;;;;5109479;28;20207;-54
2024/01/20 00:57:05;;;;;;;15.87;7.90;;;-3.60;99.90;;;;;;5109423;28;20250;-54
2024/01/20 00:59:30;;;;;;;13.50;7.83;;;-3.60;99.90;;;;;;5109439;28;20196;-54
2024/01/20 01:01:56;;;;;;;18.83;8.43;;;-3.60;99.90;;;;;;5110138;28;20174;-53
2024/01/20 01:04:22;;;;;;;17.03;9.20;;;-3.50;99.90;;;;;;5109651;28;20222;-54
2024/01/20 01:06:48;;;;;;;15.93;8.40;;;-3.60;99.90;;;;;;5109606;28;20659;-54
2024/01/20 01:09:14;;;;;;;20.10;9.73;;;-3.60;99.90;;;;;;5109311;28;20170;-54
2024/01/20 01:11:41;;;;;;;13.83;7.87;;;-3.70;99.90;;;;;;5103288;28;20183;-54
2024/01/20 01:14:06;;;;;;;13.63;6.77;;;-4.00;99.90;;;;;;5088922;28;20184;-54
2024/01/20 01:16:32;;;;;;;11.23;6.97;;;-4.10;99.90;;;;;;5088887;28;20623;-54
2024/01/20 01:18:58;;;;;;;10.50;7.17;;;-4.20;99.90;;;;;;5089604;28;20175;-54
2024/01/20 01:21:23;;;;;;;20.00;7.20;;;-4.30;99.90;;;;;;5089220;28;20206;-54
2024/01/20 01:23:49;;;;;;;14.30;7.47;;;-4.30;99.90;;;;;;5089545;28;20161;-54
2024/01/20 01:26:15;;;;;;;13.70;7.33;;;-4.20;99.90;;;;;;5089556;28;20700;-54
2024/01/20 01:28:41;;;;;;;10.50;6.80;;;-4.20;99.90;;;;;;5089627;28;20178;-54
2024/01/20 01:31:06;;;;;;;11.57;5.80;;;-4.30;99.90;;;;;;5089203;28;20248;-54
2024/01/20 01:33:32;;;;;;;11.70;6.57;;;-4.40;99.90;;;;;;5087678;28;20227;-54
2024/01/20 01:35:57;;;;;;;14.10;6.53;;;-4.30;99.90;;;;;;5089444;28;20163;-54
2024/01/20 01:38:23;;;;;;;7.80;5.37;;;-4.20;99.90;;;;;;5089317;28;20170;-54
2024/01/20 01:40:48;;;;;;;11.97;6.80;;;-4.30;99.90;;;;;;5088892;28;20199;-54
2024/01/20 01:43:14;;;;;;;12.37;7.40;;;-4.20;99.90;;;;;;5088975;28;20159;-54
2024/01/20 01:45:40;;;;;;;14.43;9.13;;;-4.00;99.90;;;;;;5089661;28;20567;-54
2024/01/20 01:48:05;;;;;;;12.60;7.60;;;-4.10;99.90;;;;;;5092624;28;20172;-54
2024/01/20 01:50:32;;;;;;;14.10;8.17;;;-4.10;99.90;;;;;;5092380;28;20215;-54
2024/01/20 01:52:58;;;;;;;20.00;8.07;;;-4.00;99.90;;;;;;5093004;28;20190;-54
2024/01/20 01:55:24;;;;;;;15.60;7.20;;;-3.90;99.90;;;;;;5092574;28;20171;-54
2024/01/20 01:57:53;;;;;;;13.53;6.90;;;-3.90;99.90;;;;;;5092720;28;20661;-54
2024/01/20 02:00:18;;;;;;;10.07;6.63;;;-4.00;99.90;;;;;;5092094;28;20196;-54
2024/01/20 02:02:44;;;;;;;9.90;6.40;;;-3.90;99.90;;;;;;5092156;28;20170;-54
2024/01/20 02:05:10;;;;;;;10.60;7.20;;;-4.00;99.90;;;;;;5092079;28;20665;-54
2024/01/20 02:07:38;;;;;;;10.93;6.13;;;-4.00;99.90;;;;;;5092025;28;20176;-54
2024/01/20 02:10:06;;;;;;;12.37;7.40;;;-4.20;99.90;;;;;;5092135;28;20630;-54
2024/01/20 02:12:31;;;;;;;14.77;7.93;;;-4.30;99.90;;;;;;5091997;28;20169;-54
2024/01/20 02:14:58;;;;;;;15.10;9.47;;;-4.30;99.90;;;;;;5092943;28;20181;-54
2024/01/20 02:17:24;;;;;;;15.47;8.00;;;-4.10;99.90;;;;;;5091109;28;20511;-54
2024/01/20 02:19:49;;;;;;;14.33;8.23;;;-4.10;99.90;;;;;;5092167;28;20248;-54
2024/01/20 02:22:15;;;;;;;16.70;7.50;;;-4.20;99.90;;;;;;5091906;28;20254;-54
2024/01/20 02:24:46;;;;;;;16.97;8.97;;;-4.30;99.90;;;;;;5091675;28;20205;-54
2024/01/20 02:27:12;;;;;;;18.23;9.23;;;-4.20;99.90;;;;;;5091907;28;20167;-54
2024/01/20 02:29:39;;;;;;;16.77;9.93;;;-4.20;99.90;;;;;;5091851;28;20177;-54
2024/01/20 02:32:06;;;;;;;15.03;7.90;;;-4.30;99.90;;;;;;5092222;28;20177;-54
2024/01/20 02:34:31;;;;;;;14.73;8.20;;;-4.20;99.90;;;;;;5091432;28;20162;-54
2024/01/20 02:36:57;;;;;;;15.93;8.50;;;-4.10;99.90;;;;;;5092075;28;20234;-54
2024/01/20 02:39:22;;;;;;;15.73;7.20;;;-4.00;99.90;;;;;;5091751;28;20170;-54
2024/01/20 02:41:48;;;;;;;10.37;5.60;;;-4.10;99.90;;;;;;5091443;28;20227;-54
2024/01/20 02:44:14;;;;;;;10.23;5.63;;;-4.20;99.90;;;;;;5091349;28;20194;-54
2024/01/20 02:46:39;;;;;;;14.63;6.90;;;-4.30;99.90;;;;;;5091251;28;20256;-55
2024/01/20 02:49:05;;;;;;;11.50;7.00;;;-4.30;99.90;;;;;;5091458;28;20247;-54
2024/01/20 02:51:31;;;;;;;11.80;7.73;;;-4.40;99.90;;;;;;5091633;28;20246;-54
2024/01/20 02:53:57;;;;;;;17.23;9.37;;;-4.40;99.90;;;;;;5092187;28;20572;-54
2024/01/20 02:56:24;;;;;;;15.73;8.43;;;-4.40;99.90;;;;;;5091534;28;20218;-54
2024/01/20 02:58:53;;;;;;;16.80;9.13;;;-4.50;99.90;;;;;;5090384;28;20581;-54
2024/01/20 03:01:18;;;;;;;15.43;7.63;;;-4.40;99.90;;;;;;5091095;28;20210;-54
2024/01/20 03:03:45;;;;;;;18.10;8.27;;;-4.40;99.90;;;;;;5091140;28;20653;-54
2024/01/20 03:06:10;;;;;;;17.23;8.27;;;-4.40;99.90;;;;;;5089764;28;20174;-54
2024/01/20 03:08:36;;;;;;;12.13;7.37;;;-4.40;99.90;;;;;;5090705;28;20611;-54
2024/01/20 03:11:02;;;;;;;12.77;7.63;;;-4.30;99.90;;;;;;5072849;28;20653;-54
2024/01/20 03:13:27;;;;;;;14.50;7.10;;;-4.20;99.90;;;;;;5091256;28;20660;-54
2024/01/20 03:15:53;;;;;;;10.40;6.70;;;-4.30;99.90;;;;;;5090747;28;20259;-54
2024/01/20 03:18:18;;;;;;;16.53;7.00;;;-4.30;99.90;;;;;;5090643;28;20215;-54
2024/01/20 03:20:44;;;;;;;13.03;7.00;;;-4.40;99.90;;;;;;5090547;28;20221;-54
2024/01/20 03:23:09;;;;;;;11.87;6.57;;;-4.40;99.90;;;;;;5090869;28;20170;-54
2024/01/20 03:25:35;;;;;;;13.60;5.37;;;-4.30;99.90;;;;;;5090589;28;20589;-54
2024/01/20 03:28:00;;;;;;;6.97;4.77;;;-4.30;99.90;;;;;;5091001;28;20223;-54
2024/01/20 03:30:26;;;;;;;8.03;5.00;;;-4.30;99.90;;;;;;5091014;28;20260;-54
2024/01/20 03:32:52;;;;;;;10.47;5.20;;;-4.40;99.90;;;;;;5090916;28;20211;-54
2024/01/20 03:35:17;;;;;;;6.80;4.57;;;-4.40;99.90;;;;;;5090920;28;20187;-54
2024/01/20 03:37:43;;;;;;;8.07;5.30;;;-4.50;99.90;;;;;;5090906;28;20166;-54
2024/01/20 03:40:09;;;;;;;11.13;5.60;;;-4.50;99.90;;;;;;5090508;28;20204;-54
2024/01/20 03:42:34;;;;;;;10.73;5.77;;;-4.70;99.90;;;;;;5090171;28;20205;-54
2024/01/20 03:45:00;;;;;;;9.20;5.03;;;-4.70;99.90;;;;;;5090534;28;20252;-54
2024/01/20 03:47:25;;;;;;;6.83;4.63;;;-4.70;99.90;;;;;;5090649;28;20641;-54
2024/01/20 03:49:51;;;;;;;7.20;4.63;;;-4.80;99.90;;;;;;5090574;28;20178;-52
2024/01/20 03:52:17;;;;;;;8.40;4.03;;;-4.80;99.90;;;;;;5090560;28;20172;-54
2024/01/20 03:54:42;;;;;;;9.50;6.07;;;-5.80;99.90;;;;;;5090454;28;20168;-54
2024/01/20 03:57:08;;;;;;;12.80;6.73;;;-4.70;99.90;;;;;;5090170;28;20236;-54
2024/01/20 03:59:34;;;;;;;10.07;5.80;;;-4.80;99.90;;;;;;5090100;28;20204;-54
2024/01/20 04:01:59;;;;;;;12.60;6.50;;;-4.80;99.90;;;;;;5089904;28;20533;-54
2024/01/20 04:04:25;;;;;;;11.00;7.17;;;-4.90;99.90;;;;;;5090233;28;20229;-54
2024/01/20 04:06:50;;;;;;;12.53;7.00;;;-4.90;99.90;;;;;;5090195;28;20186;-54
2024/01/20 04:09:16;;;;;;;18.47;7.77;;;-5.10;99.90;;;;;;5089040;28;20625;-54
2024/01/20 04:11:42;;;;;;;11.40;7.37;;;-5.10;99.90;;;;;;5089967;28;20180;-54
2024/01/20 04:14:07;;;;;;;11.43;6.87;;;-5.10;99.90;;;;;;5088723;28;20183;-54
2024/01/20 04:16:33;;;;;;;14.93;7.77;;;-5.20;99.90;;;;;;5089988;28;20211;-54
2024/01/20 04:18:58;;;;;;;11.17;6.37;;;-5.20;99.90;;;;;;5090337;28;20648;-55
2024/01/20 04:21:24;;;;;;;12.83;7.40;;;-5.40;99.90;;;;;;5089739;28;20573;-55
2024/01/20 04:23:49;;;;;;;12.87;7.47;;;-5.50;99.90;;;;;;5090019;28;20208;-54
2024/01/20 04:26:16;;;;;;;12.00;6.80;;;-5.50;99.90;;;;;;5089847;28;20211;-54
2024/01/20 04:28:41;;;;;;;13.10;7.03;;;-5.50;99.90;;;;;;5089733;28;20638;-54
2024/01/20 04:31:07;;;;;;;14.67;7.97;;;-5.50;99.90;;;;;;5089673;28;20312;-54
2024/01/20 04:33:34;;;;;;;13.57;7.17;;;-5.40;99.90;;;;;;5089372;28;20172;-54
2024/01/20 04:36:01;;;;;;;11.07;7.00;;;-5.30;99.90;;;;;;5089464;28;20172;-54
2024/01/20 04:38:26;;;;;;;8.20;5.37;;;-5.20;99.90;;;;;;5090044;28;20165;-54
2024/01/20 04:40:53;;;;;;;13.17;6.23;;;-5.20;99.90;;;;;;5089375;28;20669;-54
2024/01/20 04:43:19;;;;;;;13.00;7.57;;;-5.30;99.90;;;;;;5089652;28;20258;-54
2024/01/20 04:45:45;;;;;;;10.57;6.97;;;-5.30;99.90;;;;;;5089440;28;20304;-54
2024/01/20 04:48:10;;;;;;;12.60;7.03;;;-5.20;99.90;;;;;;5089536;28;20173;-54
2024/01/20 04:50:36;;;;;;;14.33;8.07;;;-5.40;99.90;;;;;;5089522;28;20182;-54
2024/01/20 04:53:01;;;;;;;30.20;8.53;;;-5.80;99.90;;;;;;5089737;28;20178;-54
2024/01/20 04:55:27;;;;;;;49.10;8.90;;;-5.90;99.90;;;;;;5089945;28;20179;-54
2024/01/20 04:57:52;;;;;;;90.30;9.63;;;-6.00;99.90;;;;;;5089443;28;20185;-54
2024/01/20 05:00:18;;;;;;;21.60;8.43;;;-5.90;99.90;;;;;;5089279;28;20210;-54
2024/01/20 05:02:44;;;;;;;20.73;7.70;;;-5.90;99.90;;;;;;5089099;28;20225;-54
2024/01/20 05:05:09;;;;;;;14.33;5.27;;;-5.70;99.90;;;;;;5089603;28;20183;-54
2024/01/20 05:07:35;;;;;;;11.73;6.20;;;-5.60;99.90;;;;;;5089618;28;20166;-54
2024/01/20 05:10:00;;;;;;;13.47;6.80;;;-5.50;99.90;;;;;;5089579;28;20682;-54
2024/01/20 05:12:26;;;;;;;10.40;6.73;;;-5.60;99.90;;;;;;5090020;28;20634;-54
2024/01/20 05:14:55;;;;;;;16.07;7.60;;;-5.60;99.90;;;;;;5089762;28;20177;-54
2024/01/20 05:17:21;;;;;;;13.63;7.57;;;-5.70;99.90;;;;;;5089431;28;20295;-54
2024/01/20 05:19:46;;;;;;;11.37;5.90;;;-5.70;99.90;;;;;;5089088;28;20720;-54
2024/01/20 05:22:12;;;;;;;13.17;6.67;;;-5.60;99.90;;;;;;5092281;28;20175;-55
2024/01/20 05:24:37;;;;;;;13.93;7.30;;;-5.60;99.90;;;;;;5092726;28;20171;-55
2024/01/20 05:27:03;;;;;;;14.60;8.00;;;-5.70;99.90;;;;;;5093060;28;20181;-54
2024/01/20 05:29:29;;;;;;;16.27;8.83;;;-5.70;99.90;;;;;;5093030;28;20179;-55
2024/01/20 05:31:54;;;;;;;21.77;10.20;;;-5.70;99.90;;;;;;5091988;28;20173;-54
2024/01/20 05:34:20;;;;;;;16.50;8.93;;;-5.70;99.90;;;;;;5092786;28;20250;-54
2024/01/20 05:36:45;;;;;;;16.63;9.00;;;-5.80;99.90;;;;;;5092714;28;20304;-54
2024/01/20 05:39:11;;;;;;;17.97;8.63;;;-5.70;99.90;;;;;;5092641;28;20647;-55
2024/01/20 05:41:36;;;;;;;17.33;9.27;;;-5.90;99.90;;;;;;5092623;28;20671;-55
2024/01/20 05:44:02;;;;;;;17.47;8.77;;;-5.80;99.90;;;;;;5092533;28;20167;-54
2024/01/20 05:46:28;;;;;;;18.23;9.43;;;-5.90;99.90;;;;;;5093311;28;20205;-53
2024/01/20 05:48:54;;;;;;;18.50;8.90;;;-5.80;99.90;;;;;;5092437;28;20168;-53
2024/01/20 05:51:19;;;;;;;14.73;8.30;;;-5.80;99.90;;;;;;5092745;28;20254;-53
2024/01/20 05:53:45;;;;;;;17.63;8.40;;;-5.80;99.90;;;;;;5092748;28;20570;-54
2024/01/20 05:56:11;;;;;;;12.27;6.83;;;-5.80;99.90;;;;;;5092692;28;20284;-54
2024/01/20 05:58:37;;;;;;;13.87;7.87;;;-5.90;99.90;;;;;;5092114;28;20547;-54
2024/01/20 06:01:03;;;;;;;15.23;8.20;;;-6.20;99.90;;;;;;5091752;28;20254;-54
2024/01/20 06:03:28;;;;;;;16.43;8.07;;;-6.10;99.90;;;;;;5107834;28;20176;-51
2024/01/20 06:05:54;;;;;;;15.43;8.10;;;-6.20;99.90;;;;;;5113108;28;20239;-49
2024/01/20 06:08:20;;;;;;;19.63;8.47;;;-6.20;99.90;;;;;;5114251;28;20573;-51
2024/01/20 06:10:45;;;;;;;16.77;7.73;;;-6.20;99.90;;;;;;5114200;28;20218;-51
2024/01/20 06:13:11;;;;;;;17.03;7.83;;;-6.40;99.90;;;;;;5114164;28;20163;-51
2024/01/20 06:15:36;;;;;;;22.97;10.23;;;-6.40;99.90;;;;;;5112852;28;20180;-51
2024/01/20 06:18:03;;;;;;;19.73;9.17;;;-6.40;99.90;;;;;;5114084;28;20170;-51
2024/01/20 06:20:29;;;;;;;15.57;8.70;;;-6.50;99.90;;;;;;5114470;28;20283;-50
2024/01/20 06:22:54;;;;;;;16.03;8.50;;;-6.40;99.90;;;;;;5114468;28;20276;-50
2024/01/20 06:25:20;;;;;;;17.17;8.87;;;-6.40;99.90;;;;;;5113811;28;20696;-50
2024/01/20 06:27:45;;;;;;;13.00;6.87;;;-6.50;99.90;;;;;;5113827;28;20663;-50
2024/01/20 06:30:11;;;;;;;9.13;5.70;;;-6.50;99.90;;;;;;5113719;28;20166;-51
2024/01/20 06:32:37;;;;;;;12.27;6.90;;;-6.60;99.90;;;;;;5112723;28;20202;-51
2024/01/20 06:35:03;;;;;;;12.27;6.67;;;-6.50;99.90;;;;;;5113835;28;20165;-51
2024/01/20 06:37:28;;;;;;;12.77;6.23;;;-6.40;99.90;;;;;;5114209;28;20164;-50
2024/01/20 06:39:54;;;;;;;11.97;6.93;;;-6.40;99.90;;;;;;5114091;27;20208;-51
2024/01/20 06:42:19;;;;;;;17.70;8.70;;;-6.70;99.90;;;;;;5113615;28;20287;-50
2024/01/20 06:44:45;;;;;;;19.83;10.27;;;-6.80;99.90;;;;;;5113542;28;20188;-50
2024/01/20 06:47:11;;;;;;;23.93;10.93;;;-6.80;99.90;;;;;;5113829;28;20169;-50
2024/01/20 06:49:40;;;;;;;20.97;8.53;;;-6.60;99.90;;;;;;5113413;28;20256;-50
2024/01/20 06:52:05;;;;;;;14.10;7.53;;;-6.90;99.90;;;;;;5113389;28;20648;-51
2024/01/20 06:54:31;;;;;;;10.30;6.40;;;-6.80;99.90;;;;;;5112066;28;20173;-50
2024/01/20 06:56:57;;;;;;;15.23;8.23;;;-6.70;99.90;;;;;;5113727;28;20242;-51
2024/01/20 06:59:22;;;;;;;16.77;8.47;;;-6.70;99.90;;;;;;5112885;28;20170;-50
2024/01/20 07:01:48;;;;;;;16.63;7.83;;;-6.60;99.90;;;;;;5113454;28;20633;-50
2024/01/20 07:04:13;;;;;;;13.20;6.90;;;-6.50;99.90;;;;;;5112849;28;20192;-51
2024/01/20 07:06:39;;;;;;;12.43;6.77;;;-6.50;99.90;;;;;;5113217;28;20168;-51
2024/01/20 07:09:05;;;;;;;17.50;7.27;;;-6.40;99.90;;;;;;5113097;28;20161;-51
2024/01/20 07:11:32;;;;;;;13.60;6.20;;;-6.30;99.90;;;;;;5113316;28;20181;-50
2024/01/20 07:13:57;;;;;;;14.17;7.07;;;-6.40;99.90;;;;;;5113553;28;20650;-55
2024/01/20 07:16:23;;;;;;;14.73;7.03;;;-6.40;99.90;;;;;;5112923;28;20171;-52
2024/01/20 07:18:49;;;;;;;12.33;6.40;;;-6.50;99.90;;;;;;5112710;28;20164;-53
2024/01/20 07:21:14;;;;;;;10.80;5.87;;;-6.50;99.90;;;;;;5112991;28;20735;-54
2024/01/20 07:23:40;;;;;;;11.00;6.03;;;-6.60;99.90;;;;;;5113068;28;20172;-56
2024/01/20 07:26:06;;;;;;;13.23;6.73;;;-6.70;99.90;;;;;;5112436;28;20646;-56
2024/01/20 07:28:31;;;;;;;15.43;7.03;;;-6.70;99.90;;;;;;5112148;28;20207;-56
2024/01/20 07:30:57;;;;;;;11.67;5.97;;;-6.60;99.90;;;;;;5112492;28;20252;-56
2024/01/20 07:33:22;;;;;;;15.87;6.60;;;-6.60;99.90;;;;;;5112060;28;20170;-56
2024/01/20 07:35:48;;;;;;;15.53;7.93;;;-6.60;99.90;;;;;;5112075;28;20177;-56
2024/01/20 07:38:14;;;;;;;13.97;7.30;;;-6.50;99.90;;;;;;5112290;28;20165;-55
2024/01/20 07:40:39;;;;;;;15.73;8.53;;;-6.60;99.90;;;;;;5112255;28;20216;-56
2024/01/20 07:43:05;;;;;;;18.40;8.67;;;-6.70;99.90;;;;;;5111985;28;20167;-55
2024/01/20 07:45:31;;;;;;;15.40;8.60;;;-6.80;99.90;;;;;;5112157;28;20180;-56
2024/01/20 07:48:00;;;;;;;24.50;9.70;;;-6.90;99.90;;;;;;5112691;28;20164;-57
2024/01/20 07:50:27;;;;;;;20.03;9.33;;;-6.80;99.90;;;;;;5112636;28;20165;-56
2024/01/20 07:52:52;;;;;;;16.20;9.13;;;-6.60;99.90;;;;;;5112149;28;20659;-51
2024/01/20 07:55:18;;;;;;;16.47;7.53;;;-6.50;99.90;;;;;;5112217;28;20185;-51
2024/01/20 07:57:43;;;;;;;16.40;7.47;;;-6.40;99.90;;;;;;5112027;28;20602;-51
2024/01/20 08:00:13;;;;;;;14.43;7.37;;;-6.40;99.90;;;;;;5112047;28;20192;-51
2024/01/20 08:02:39;;;;;;;15.57;7.57;;;-6.40;99.90;;;;;;5112175;28;20518;-51
2024/01/20 08:05:05;;;;;;;13.50;7.03;;;-6.30;99.90;;;;;;5112139;28;20248;-51
2024/01/20 08:07:31;;;;;;;14.77;7.10;;;-6.30;99.90;;;;;;5112268;28;20169;-51
2024/01/20 08:09:57;;;;;;;20.60;7.80;;;-6.20;99.90;;;;;;5111364;28;20166;-56
2024/01/20 08:12:23;;;;;;;11.83;5.97;;;-6.10;99.90;;;;;;5111949;28;20172;-52
2024/01/20 08:14:48;;;;;;;14.97;8.07;;;-6.20;99.90;;;;;;5111895;28;20164;-53
2024/01/20 08:17:14;;;;;;;15.57;7.37;;;-6.30;99.90;;;;;;5111904;28;20684;-51
2024/01/20 08:19:39;;;;;;;18.90;8.90;;;-6.30;99.90;;;;;;5111805;28;20677;-52
2024/01/20 08:22:06;;;;;;;14.37;8.47;;;-6.30;99.90;;;;;;5111818;28;20650;-51
2024/01/20 08:24:32;;;;;;;13.77;8.13;;;-6.30;99.90;;;;;;5111854;28;20194;-53
2024/01/20 08:26:57;;;;;;;13.60;7.27;;;-6.20;99.90;;;;;;5112242;28;20257;-56
2024/01/20 08:29:23;;;;;;;15.73;8.37;;;-6.10;99.90;;;;;;5112333;28;20183;-55
2024/01/20 08:31:49;;;;;;;13.60;7.80;;;-5.90;99.90;;;;;;5111920;28;20220;-55
2024/01/20 08:34:14;;;;;;;14.90;7.50;;;-5.90;99.90;;;;;;5111694;28;20547;-56
2024/01/20 08:36:40;;;;;;;11.60;7.50;;;-5.90;99.90;;;;;;5111567;28;20295;-57
2024/01/20 08:39:06;;;;;;;13.43;7.93;;;-6.00;99.90;;;;;;5111583;28;20172;-57
2024/01/20 08:41:31;;;;;;;11.73;7.83;;;-5.80;99.90;;;;;;5111603;28;20205;-53
2024/01/20 08:43:57;;;;;;;22.00;9.47;;;-5.50;99.90;;;;;;5112070;28;20632;-54
2024/01/20 08:46:25;;;;;;;20.33;9.00;;;-5.50;99.90;;;;;;5111447;28;20180;-51
2024/01/20 08:48:51;;;;;;;24.10;9.83;;;-5.40;99.90;;;;;;5111558;28;20164;-56
2024/01/20 08:51:16;;;;;;;29.30;11.90;;;-5.40;99.90;;;;;;5110107;28;20204;-54
2024/01/20 08:53:42;;;;;;;23.27;10.50;;;-5.20;99.90;;;;;;5111368;28;20195;-57
2024/01/20 08:56:08;;;;;;;29.20;12.40;;;-4.90;99.90;;;;;;5113029;28;20213;-56
2024/01/20 08:58:33;;;;;;;36.60;16.40;;;-4.80;99.90;;;;;;5115539;28;20176;-57
2024/01/20 09:00:59;;;;;;;32.70;13.50;;;-4.60;99.90;;;;;;5115544;28;20265;-56
2024/01/20 09:03:25;;;;;;;27.77;11.50;;;-4.30;99.90;;;;;;5116063;28;20251;-54
2024/01/20 09:05:50;;;;;;;20.03;10.03;;;-4.30;99.90;;;;;;5115708;28;20199;-52
2024/01/20 09:08:16;;;;;;;21.20;9.70;;;-4.30;99.90;;;;;;5115494;28;20163;-52
2024/01/20 09:10:41;;;;;;;17.03;9.23;;;-4.40;99.90;;;;;;5115406;28;20200;-53
2024/01/20 09:13:07;;;;;;;17.17;8.07;;;-4.50;99.90;;;;;;5114104;28;20177;-54
2024/01/20 09:15:33;;;;;;;15.70;8.30;;;-4.60;99.90;;;;;;5115329;28;20222;-56
2024/01/20 09:17:58;;;;;;;13.17;7.87;;;-4.60;99.90;;;;;;5115382;28;20180;-56
2024/01/20 09:20:24;;;;;;;13.90;7.27;;;-4.80;99.90;;;;;;5115582;28;20286;-54
2024/01/20 09:22:50;;;;;;;12.57;7.07;;;-4.80;99.90;;;;;;5115217;28;20254;-55
2024/01/20 09:25:16;;;;;;;11.93;7.47;;;-4.80;99.90;;;;;;5115061;28;20167;-53
2024/01/20 09:27:42;;;;;;;13.33;7.73;;;-4.60;99.90;;;;;;5113816;28;20164;-54
2024/01/20 09:30:08;;;;;;;15.23;7.97;;;-4.40;99.90;;;;;;5114988;28;20211;-56
2024/01/20 09:32:34;;;;;;;11.40;7.00;;;-4.30;99.90;;;;;;5114865;28;20171;-54
2024/01/20 09:35:00;;;;;;;17.70;8.07;;;-4.40;99.90;;;;;;5114944;28;20240;-51
2024/01/20 09:37:26;;;;;;;16.60;8.63;;;-4.30;99.90;;;;;;5115327;28;20247;-52
2024/01/20 09:39:51;;;;;;;20.70;8.83;;;-4.00;99.90;;;;;;5113616;28;20589;-55
2024/01/20 09:42:17;;;;;;;15.63;8.53;;;-3.80;99.90;;;;;;5114823;28;20193;-54
2024/01/20 09:44:43;;;;;;;16.13;9.47;;;-3.60;99.90;;;;;;5113557;28;20171;-57
2024/01/20 09:47:11;;;;;;;17.57;9.33;;;-3.40;99.90;;;;;;5114767;28;20244;-54
2024/01/20 09:49:37;;;;;;;17.70;8.97;;;-3.40;99.90;;;;;;5114975;28;20171;-56
2024/01/20 09:52:09;;;;;;;17.33;9.53;;;-3.30;99.90;;;;;;5114923;28;20220;-56
2024/01/20 09:54:44;;;;;;;17.80;9.63;;;-3.20;99.90;;;;;;5114530;28;20160;-56
2024/01/20 09:57:11;;;;;;;15.83;8.00;;;-3.00;99.90;;;;;;5114352;28;20234;-56
2024/01/20 09:59:41;;;;;;;16.52;9.55;;;-3.20;99.90;;;;;;5114779;28;20172;-56
2024/01/20 10:02:10;;;;;;;16.38;9.38;;;-3.00;99.90;;;;;;5114446;28;20157;-55
2024/01/20 10:04:40;;;;;;;21.40;9.57;;;-2.80;99.90;;;;;;5114460;28;20157;-56
2024/01/20 10:07:06;;;;;;;16.38;8.57;;;-2.70;99.90;;;;;;5112880;28;20169;-56
2024/01/20 10:09:31;;;;;;;21.93;9.47;;;-2.80;99.90;;;;;;5114230;28;20198;-56
2024/01/20 10:11:58;;;;;;;22.48;11.15;;;-2.40;99.90;;;;;;5114713;28;20172;-56
2024/01/20 10:14:24;;;;;;;17.17;9.48;;;-2.10;99.90;;;;;;5114991;28;20212;-56
2024/01/20 10:16:49;;;;;;;17.55;10.05;;;-1.80;99.90;;;;;;5114059;28;20184;-56
2024/01/20 10:19:15;;;;;;;17.63;9.43;;;-1.70;99.90;;;;;;5113916;28;20217;-55
2024/01/20 10:21:41;;;;;;;19.77;9.52;;;-1.60;99.90;;;;;;5113956;28;20204;-56
2024/01/20 10:24:10;;;;;;;21.65;10.50;;;-1.70;99.90;;;;;;5114052;28;20165;-53
2024/01/20 10:26:42;;;;;;;15.45;9.07;;;-1.50;99.90;;;;;;5113998;28;20169;-56
2024/01/20 10:29:09;;;;;;;19.42;9.68;;;-1.30;99.90;;;;;;5114227;28;20196;-56
2024/01/20 10:31:35;;;;;;;25.30;10.13;;;-1.30;99.90;;;;;;5114105;28;20176;-56
2024/01/20 10:34:01;;;;;;;19.25;9.98;;;-1.30;99.90;;;;;;5114113;28;20527;-54
2024/01/20 10:36:27;;;;;;;15.07;8.45;;;-1.30;99.90;;;;;;5114252;28;20191;-53
2024/01/20 10:38:53;;;;;;;26.73;12.73;;;-1.30;99.90;;;;;;5114153;28;20179;-53
2024/01/20 10:41:23;;;;;;;25.75;14.13;;;-1.30;99.90;;;;;;5113572;28;20592;-55
2024/01/20 10:44:01;;;;;;;52.47;29.08;;;-1.00;99.90;;;;;;5113524;28;20184;-55
2024/01/20 10:46:31;;;;;;;26.90;14.45;;;-1.00;99.90;;;;;;5114027;28;20157;-56
2024/01/20 10:49:03;;;;;;;25.40;14.55;;;-0.90;99.90;;;;;;5114020;28;20161;-52
2024/01/20 10:51:29;;;;;;;27.13;15.55;;;-0.80;99.90;;;;;;5113534;27;20172;-55
2024/01/20 10:53:56;;;;;;;19.23;10.95;;;-0.70;99.90;;;;;;5112799;28;20165;-55
2024/01/20 10:56:24;;;;;;;21.20;10.82;;;-0.50;99.90;;;;;;5113179;28;20215;-52
2024/01/20 10:58:58;;;;;;;31.55;15.57;;;-0.50;99.90;;;;;;5113279;28;20164;-56
2024/01/20 11:01:24;;;;;;;31.83;17.52;;;-0.50;99.90;;;;;;5113736;28;20304;-56
2024/01/20 11:03:50;;;;;;;24.35;12.68;;;-0.30;99.90;;;;;;5113317;28;20574;-52
2024/01/20 11:06:24;;;;;;;32.13;16.10;;;-0.10;99.90;;;;;;5113205;28;20173;-52
2024/01/20 11:08:51;;;;;;;24.42;12.63;;;-0.10;99.90;;;;;;5113088;28;20160;-56
2024/01/20 11:11:19;;;;;;;23.58;13.05;;;0.10;99.90;;;;;;5112966;28;20711;-56
2024/01/20 11:13:46;;;;;;;18.20;10.98;;;0.00;99.90;;;;;;5113333;28;20183;-56
2024/01/20 11:16:20;;;;;;;21.33;12.48;;;0.10;99.90;;;;;;5112977;28;20252;-56
2024/01/20 11:18:46;;;;;;;28.85;14.40;;;0.10;99.90;;;;;;5112613;28;20173;-56
2024/01/20 11:21:17;;;;;;;33.60;20.02;;;0.20;99.90;;;;;;5111528;28;20616;-55
2024/01/20 11:23:59;;;;;;;22.70;12.52;;;0.40;99.90;;;;;;5112822;27;20206;-54
2024/01/20 11:26:32;;;;;;;18.45;10.80;;;0.40;99.90;;;;;;5113623;28;20179;-53
2024/01/20 11:29:00;;;;;;;22.00;13.52;;;0.30;99.90;;;;;;5112752;28;20368;-56
2024/01/20 11:31:26;;;;;;;17.15;11.10;;;0.40;99.90;;;;;;5113253;28;20646;-52
2024/01/20 11:33:52;;;;;;;28.80;19.33;;;0.50;99.90;;;;;;5112946;28;20169;-54
2024/01/20 11:36:18;;;;;;;26.23;15.60;;;0.70;99.90;;;;;;5112625;28;20248;-54
2024/01/20 11:38:45;;;;;;;45.22;30.08;;;0.60;99.90;;;;;;5112633;28;20295;-55
2024/01/20 11:41:11;;;;;;;35.03;22.85;;;0.90;99.90;;;;;;5111307;28;20208;-56
2024/01/20 11:43:43;;;;;;;325.35;163.57;;;1.00;99.90;;;;;;5112555;28;20520;-57
2024/01/20 11:46:08;;;;;;;96.05;49.45;;;1.10;99.90;;;;;;5112111;28;20259;-55
2024/01/20 11:48:34;;;;;;;190.13;95.30;;;1.20;99.90;;;;;;5112270;28;20635;-53
2024/01/20 11:51:01;;;;;;;58.90;32.70;;;1.20;99.90;;;;;;5112274;28;20176;-55
2024/01/20 11:53:27;;;;;;;118.53;57.88;;;1.10;99.90;;;;;;5111452;28;20172;-56
2024/01/20 11:55:58;;;;;;;40.00;19.40;;;1.20;99.90;;;;;;5112075;28;20212;-56
2024/01/20 11:58:24;;;;;;;30.58;17.80;;;1.10;99.90;;;;;;5112980;28;20248;-56
2024/01/20 12:00:51;;;;;;;33.75;19.58;;;1.00;99.90;;;;;;5112030;28;20211;-53
2024/01/20 12:03:17;;;;;;;34.45;20.02;;;0.90;99.90;;;;;;5112109;28;20156;-56
2024/01/20 12:05:43;;;;;;;24.27;14.10;;;1.00;99.90;;;;;;5112090;28;20165;-56
2024/01/20 12:08:09;;;;;;;18.55;11.02;;;1.00;99.90;;;;;;5112041;28;20172;-56
2024/01/20 12:10:34;;;;;;;18.15;10.15;;;1.00;99.90;;;;;;5112027;28;20172;-54
2024/01/20 12:13:02;;;;;;;31.17;19.98;;;1.00;99.90;;;;;;5111975;27;20554;-54
2024/01/20 12:15:33;;;;;;;14.73;9.02;;;1.10;99.90;;;;;;5111144;28;20195;-54
2024/01/20 12:17:58;;;;;;;25.67;14.68;;;0.90;99.90;;;;;;5111954;28;20228;-53
2024/01/20 12:20:24;;;;;;;23.67;11.57;;;0.90;99.90;;;;;;5111435;28;20193;-51
2024/01/20 12:22:50;;;;;;;20.77;11.70;;;0.90;99.90;;;;;;5111622;28;20532;-55
2024/01/20 12:25:16;;;;;;;20.60;11.52;;;0.90;99.90;;;;;;5111549;28;20632;-52
2024/01/20 12:27:41;;;;;;;20.30;11.50;;;0.80;99.90;;;;;;5111257;28;20165;-53
2024/01/20 12:30:07;;;;;;;25.00;13.13;;;0.80;99.90;;;;;;5110923;28;20258;-53